Flight Track Log - Related Links

Times and Time Zones

All times are in EDT time to prevent confusion due to time zone crossing. See the SAS4185 flight status page for this flight to view local times or setup timezone preferences in your user account.

Time Position Orientation Groundspeed Altitude Reporting Facility
EDT Latitude Longitude Course Direction KTS MPH feet Rate Location/Type
Fri 12:56:32 PM 60.1729 5.2553 171° South  Level Estimated
Fri 12:57:32 PM 60.0942 5.2793 171° South  Level Estimated
Fri 12:58:32 PM 60.0156 5.3033 171° South  Level Estimated
Fri 12:59:32 PM 59.9370 5.3271 171° South  Level Estimated
Fri 01:00:32 PM 59.8584 5.3508 171° South  Level Estimated
Fri 01:01:32 PM 59.7798 5.3744 171° South  Level Estimated
Fri 01:02:32 PM 59.7011 5.3979 171° South  Level Estimated
Fri 01:03:32 PM 59.6225 5.4213 171° South  Level Estimated
Fri 01:04:32 PM 59.5439 5.4446 171° South  Level Estimated
Fri 01:05:32 PM 59.4652 5.4678 172° South  Level Estimated
Fri 01:06:32 PM 59.3866 5.4908 172° South  Level Estimated
Fri 01:07:32 PM 59.3079 5.5138 172° South  Level Estimated
Fri 01:08:32 PM 59.2293 5.5366 172° South  Level Estimated
Fri 01:09:32 PM 59.1506 5.5594 172° South  Level Estimated
Fri 01:10:32 PM 59.0719 5.5820 172° South  Level Estimated
Fri 01:11:32 PM 58.9933 5.6046 172° South  Level Estimated
Fri 01:12:32 PM 58.9146 5.6270 172° South  Level Estimated
Fri 01:13:32 PM 58.8359 5.6493 352° North  Level Estimated
Fri 01:14:32 PM 58.9146 5.6270 172° South  Level Estimated
Fri 01:15:32 PM 58.8359 5.6493 352° North  Level Estimated
Fri 01:16:32 PM 58.9146 5.6270 172° South  Level Estimated
Fri 01:17:32 PM 58.8359 5.6493 352° North  Level Estimated
Fri 01:18:32 PM 58.9146 5.6270 172° South  Level Estimated
Fri 01:19:32 PM 58.8359 5.6493 352° North  Level Estimated
Fri 01:20:32 PM 58.9146 5.6270 172° South  Level Estimated
Fri 01:21:32 PM 58.8359 5.6493 172° South  Level Estimated

Login

Don't have an account? Register now (free) for customized features, flight alerts, and more!